Sant Hilari Sacalm





Hora UTC 07:35
Temperatura 19.4 ºC
Humitat 63.0 %
Pressió 1018.7 hPa
Pluja 0.0 mm
Velocitat vent 3.0 km/h
Direcció vent SW
Radiació solar 69.0 W/m²

Dades diàries 2020-09-18



Hora UTC (hivern +1h; estiu +2h)
Temperatura (ºC) Humitat (%) Pressió (hPa) Velocitat vent (km/h) Precipitació (mm) Radiació solar (W/m²)
Hora UTC Aire Humitat Pressió Vel. Dir. Vel. Max Dir. Intent. màx 5 min. Rad. Sol.
00:05 18.0 72.0 1018.2 6.3 WNW 6.3 WNW 0.0 0.1
00:10 18.1 70.6 1018.1 5.5 NW 11.5 WNW 0.0 0.1
00:15 18.2 68.8 1018.0 5.9 W 11.5 NW 0.0 0.1
00:20 18.4 67.3 1018.0 5.6 W 14.2 WNW 0.0 0.1
00:25 18.7 61.5 1017.9 9.1 WNW 16.9 WNW 0.0 0.1
00:30 19.0 58.3 1017.9 6.7 W 14.2 WSW 0.0 0.1
00:35 19.0 58.2 1017.8 7.2 WNW 14.2 WNW 0.0 0.1
00:40 19.1 55.4 1017.8 7.0 WNW 14.2 WNW 0.0 0.1
00:45 19.1 55.8 1017.7 2.3 NW 8.8 NW 0.0 0.1
00:50 18.9 56.0 1017.6 4.9 NW 11.5 NW 0.0 0.1
00:55 18.9 55.8 1017.5 4.2 NW 14.2 WNW 0.0 0.1
01:00 18.7 56.9 1017.4 6.5 NW 14.2 NW 0.0 0.1
01:05 18.9 54.5 1017.4 7.0 NW 14.2 WNW 0.0 0.1
01:10 19.0 54.8 1017.4 3.0 NNW 8.8 WNW 0.0 0.1
01:15 18.7 55.6 1017.4 3.8 NNW 8.8 NW 0.0 0.1
01:20 18.5 57.2 1017.3 6.5 NNW 11.5 NW 0.0 0.1
01:25 18.4 57.0 1017.3 6.7 NNW 11.5 NW 0.0 0.1
01:30 18.6 55.4 1017.4 5.5 NNW 8.8 NNW 0.0 0.1
01:35 18.8 53.9 1017.4 2.0 NW 6.1 NW 0.0 0.1
01:40 19.1 51.5 1017.4 0.8 N 6.1 W 0.0 0.0
01:45 19.2 52.1 1017.4 2.2 W 6.1 WNW 0.0 0.1
01:50 19.0 54.3 1017.4 1.8 W 8.8 WSW 0.0 0.1
01:55 18.9 53.7 1017.4 3.9 WNW 11.5 NW 0.0 0.1
02:00 18.9 54.3 1017.4 3.1 WNW 11.5 NW 0.0 0.1
02:05 18.6 58.4 1017.4 3.6 WSW 8.8 SW 0.0 0.1
02:10 18.3 57.7 1017.4 3.5 WNW 11.5 WNW 0.0 0.1
02:15 18.3 55.5 1017.3 4.7 NW 11.5 NNW 0.0 0.1
02:20 18.5 53.4 1017.3 1.3 W 6.1 W 0.0 0.1
02:25 18.6 56.9 1017.3 1.2 S 6.1 S 0.0 0.1
02:30 18.3 57.4 1017.3 4.9 WNW 11.5 W 0.0 0.1
02:35 18.2 56.6 1017.2 2.3 NW 8.8 WNW 0.0 0.1
02:40 18.3 56.4 1017.2 5.6 W 14.2 WNW 0.0 0.1
02:45 18.1 59.4 1017.3 4.7 W 8.8 WSW 0.0 0.1
02:50 18.0 60.1 1017.3 6.1 W 11.5 WSW 0.0 0.1
02:55 17.6 60.9 1017.3 2.3 W 6.1 WNW 0.0 0.1
03:00 17.4 62.8 1017.3 4.2 WSW 11.5 SW 0.0 0.1
03:05 17.4 62.7 1017.3 4.0 WSW 8.8 WSW 0.0 0.1
03:10 17.2 60.8 1017.3 3.5 WNW 8.8 W 0.0 0.1
03:15 17.2 61.5 1017.3 3.4 W 8.8 WSW 0.0 0.1
03:20 17.1 63.3 1017.3 1.3 WSW 6.1 SW 0.0 0.1
03:25 16.8 64.3 1017.3 4.7 W 11.5 WNW 0.0 0.1
03:30 16.6 66.3 1017.4 6.3 W 8.8 WSW 0.0 0.1
03:35 17.7 55.5 1017.4 5.4 WNW 8.8 NW 0.0 0.1
03:40 17.6 59.5 1017.5 3.3 W 8.8 WSW 0.0 0.1
03:45 16.9 64.0 1017.5 4.6 WSW 11.5 WSW 0.0 0.1
03:50 16.8 62.1 1017.5 5.5 WNW 11.5 NW 0.0 0.1
03:55 17.4 57.2 1017.4 5.0 NW 8.8 NNW 0.0 0.1
04:00 17.8 57.2 1017.4 5.6 WNW 11.5 WNW 0.0 0.1
04:05 17.9 58.3 1017.5 4.1 WNW 11.5 WNW 0.0 0.1
04:10 17.5 59.5 1017.5 4.3 W 8.8 W 0.0 0.1
04:15 17.3 61.0 1017.4 4.3 WNW 8.8 W 0.0 0.1
04:20 17.2 60.1 1017.4 4.7 WNW 8.8 WNW 0.0 0.1
04:25 17.3 58.6 1017.4 4.7 WNW 11.5 W 0.0 0.1
04:30 17.6 58.2 1017.5 3.4 WNW 8.8 WNW 0.0 0.1
04:35 17.6 59.4 1017.5 5.3 NW 8.8 WNW 0.0 0.1
04:40 17.8 58.9 1017.5 4.0 W 8.8 WNW 0.0 0.1
04:45 17.4 60.4 1017.5 5.4 WNW 11.5 SW 0.0 0.1
04:50 17.2 62.9 1017.6 5.7 W 11.5 SW 0.0 0.1
04:55 17.1 62.8 1017.6 5.8 WNW 11.5 WNW 0.0 0.1
05:00 17.2 61.7 1017.7 5.1 WNW 8.8 WNW 0.0 0.1
05:05 17.0 65.0 1017.7 5.7 W 11.5 W 0.0 0.1
05:10 16.8 64.5 1017.8 3.5 W 8.8 W 0.0 0.1
05:15 16.8 65.6 1017.9 6.5 WSW 11.5 SW 0.0 0.1
05:20 16.6 65.0 1017.9 6.3 W 11.5 W 0.0 0.3
05:25 17.1 62.0 1018.0 3.9 WSW 8.8 WSW 0.0 0.6
05:30 17.1 65.2 1018.0 4.0 W 8.8 W 0.0 2.0
05:35 17.4 62.6 1018.0 4.7 NW 11.5 NW 0.0 4.5
05:40 17.5 63.7 1018.1 3.0 WNW 8.8 WNW 0.0 5.5
05:45 17.4 63.2 1018.1 3.2 W 6.1 WNW 0.0 8.1
05:50 17.5 63.7 1018.1 4.2 WNW 8.8 NW 0.0 11.3
05:55 17.8 62.0 1018.1 4.2 W 11.5 W 0.0 12.8
06:00 18.0 61.4 1018.1 4.3 W 8.8 W 0.0 14.0
06:05 18.3 60.0 1018.1 6.0 W 11.5 WNW 0.0 16.4
06:10 18.5 60.3 1018.2 4.3 W 11.5 W 0.0 20.3
06:15 18.0 63.3 1018.1 3.5 W 8.8 NW 0.0 22.6
06:20 18.4 61.7 1018.2 5.9 W 11.5 WNW 0.0 26.2
06:25 18.4 61.5 1018.2 4.0 WNW 8.8 NNW 0.0 31.5
06:30 18.6 61.2 1018.3 5.9 W 11.5 W 0.0 37.2
06:35 18.7 60.4 1018.3 6.1 W 11.5 W 0.0 47.1
06:40 18.8 60.8 1018.3 5.8 WSW 11.5 WSW 0.0 55.0
06:45 18.8 61.7 1018.3 4.2 W 8.8 WNW 0.0 52.9
06:50 19.0 61.0 1018.4 3.7 WSW 8.8 W 0.0 47.5
06:55 18.9 62.0 1018.4 5.2 W 8.8 NW 0.0 42.6
07:00 19.2 59.3 1018.5 5.5 W 11.5 WNW 0.0 41.7
07:05 19.3 59.8 1018.5 3.8 W 11.5 W 0.0 48.1
07:10 18.9 62.7 1018.5 3.6 WSW 8.8 WNW 0.0 58.8
07:15 19.0 62.5 1018.6 3.8 W 8.8 WSW 0.0 73.6
07:20 19.1 62.8 1018.6 2.7 W 8.8 W 0.0 90.0
07:25 19.2 63.1 1018.6 2.3 WSW 6.1 SW 0.0 97.0
07:30 19.3 61.5 1018.7 2.3 SW 6.1 WSW 0.0 85.8
07:35 19.4 63.0 1018.7 3.0 SW 6.1 SSW 0.0 69.0
Màxima 19.5 72.0 1018.7 9.1 WNW 16.9 WNW 0.0 97.0
Mínima 16.4 51.5 1017.2
Total 0.0